Time;durP1;ratioP1;P1;durP2;ratioP2;P2;SDS_P1;SDS_P2;PMS_P1;PMS_P2;Temp;Humidity;BMP_temperature;BMP_pressure;BME280_temperature;BME280_humidity;BME280_pressure;Samples;Min_cycle;Max_cycle;Signal;HPM_P1;HPM_P2
2024/04/23 00:00:19;;;;;;;2.63;2.57;;;3.60;1.00;;;;;;5454783;26;20993;-71
2024/04/23 00:02:46;;;;;;;3.17;2.97;;;3.60;1.00;;;;;;5451829;26;20253;-71
2024/04/23 00:05:16;;;;;;;3.20;2.70;;;3.50;1.00;;;;;;5456097;26;20263;-70
2024/04/23 00:07:44;;;;;;;3.10;2.90;;;3.50;1.00;;;;;;5450277;26;20237;-70
2024/04/23 00:10:17;;;;;;;3.43;3.13;;;3.40;1.00;;;;;;5446388;26;20268;-70
2024/04/23 00:12:44;;;;;;;5.50;3.00;;;3.40;1.00;;;;;;5456684;26;20279;-70
2024/04/23 00:15:14;;;;;;;3.50;3.20;;;3.40;1.00;;;;;;5452738;26;20315;-71
2024/04/23 00:17:42;;;;;;;3.33;3.13;;;3.30;1.00;;;;;;5455236;26;20283;-70
2024/04/23 00:20:12;;;;;;;3.70;3.40;;;3.20;1.00;;;;;;5448108;25;20365;-70
2024/04/23 00:22:40;;;;;;;4.00;3.50;;;3.20;1.00;;;;;;5454473;26;20289;-70
2024/04/23 00:25:10;;;;;;;3.97;3.67;;;3.20;1.00;;;;;;5447411;26;20295;-70
2024/04/23 00:27:40;;;;;;;5.70;3.30;;;3.10;1.00;;;;;;5457951;26;20299;-70
2024/04/23 00:30:11;;;;;;;3.83;3.43;;;3.10;1.00;;;;;;5450610;25;20731;-70
2024/04/23 00:32:39;;;;;;;5.47;3.53;;;3.10;1.00;;;;;;5458610;26;20304;-70
2024/04/23 00:35:09;;;;;;;3.60;3.40;;;3.10;8.00;;;;;;5457176;26;20256;-70
2024/04/23 00:37:36;;;;;;;3.40;3.30;;;3.00;21.50;;;;;;5455971;26;20237;-70
2024/04/23 00:40:07;;;;;;;3.80;3.50;;;3.00;1.00;;;;;;5460455;26;20592;-70
2024/04/23 00:42:35;;;;;;;5.77;3.43;;;2.90;21.40;;;;;;5452156;26;20252;-70
2024/04/23 00:45:09;;;;;;;3.57;3.37;;;2.90;1.00;;;;;;5449604;25;20657;-70
2024/04/23 00:47:36;;;;;;;3.90;3.60;;;2.90;1.00;;;;;;5453635;25;20665;-70
2024/04/23 00:50:08;;;;;;;3.57;3.23;;;2.80;1.00;;;;;;5461320;25;20292;-70
2024/04/23 00:52:36;;;;;;;5.97;3.70;;;2.80;1.00;;;;;;5451397;26;21230;-70
2024/04/23 00:55:06;;;;;;;3.97;3.47;;;2.80;1.00;;;;;;5459727;26;20248;-70
2024/04/23 00:57:34;;;;;;;4.00;3.70;;;2.80;6.30;;;;;;5452333;26;20311;-70
2024/04/23 01:00:08;;;;;;;4.10;3.77;;;2.70;1.00;;;;;;5457089;26;20785;-70
2024/04/23 01:02:38;;;;;;;4.73;4.13;;;2.70;1.00;;;;;;5442874;26;20325;-70
2024/04/23 01:05:09;;;;;;;3.70;3.40;;;2.70;1.60;;;;;;5461175;25;20342;-70
2024/04/23 01:07:36;;;;;;;4.00;3.70;;;2.70;13.70;;;;;;5451938;26;20259;-70
2024/04/23 01:10:07;;;;;;;4.13;3.83;;;2.60;10.30;;;;;;5450485;26;20295;-70
2024/04/23 01:12:35;;;;;;;4.07;3.77;;;2.60;18.60;;;;;;5454417;26;20296;-70
2024/04/23 01:15:11;;;;;;;5.50;3.80;;;2.60;45.00;;;;;;5448958;26;20275;-70
2024/04/23 01:17:39;;;;;;;4.80;4.30;;;2.60;28.30;;;;;;5457152;25;20241;-70
2024/04/23 01:20:14;;;;;;;3.93;3.53;;;2.50;46.20;;;;;;5446625;26;20325;-70
2024/04/23 01:22:50;;;;;;;6.70;3.77;;;2.50;51.60;;;;;;5458579;26;20741;-70
2024/04/23 01:25:24;;;;;;;4.00;3.70;;;2.40;34.30;;;;;;5454159;26;20241;-70
2024/04/23 01:27:54;;;;;;;4.33;3.90;;;2.40;50.80;;;;;;5456466;26;20360;-70
2024/04/23 01:30:27;;;;;;;4.57;3.43;;;2.40;61.90;;;;;;5452356;26;20300;-70
2024/04/23 01:32:55;;;;;;;4.00;3.70;;;2.40;74.90;;;;;;5452225;26;20276;-70
2024/04/23 01:35:26;;;;;;;4.20;3.90;;;2.30;81.10;;;;;;5454320;26;20283;-71
2024/04/23 01:37:56;;;;;;;4.03;3.73;;;2.30;91.10;;;;;;5449320;26;20711;-70
2024/04/23 01:40:26;;;;;;;4.30;3.90;;;2.30;90.30;;;;;;5453440;26;20238;-70
2024/04/23 01:42:57;;;;;;;4.47;4.00;;;2.30;93.50;;;;;;5441788;26;20245;-71
2024/04/23 01:45:27;;;;;;;3.63;3.40;;;2.20;93.40;;;;;;5454513;25;20270;-70
2024/04/23 01:47:58;;;;;;;4.17;3.77;;;2.20;94.00;;;;;;5446963;26;20340;-70
2024/04/23 01:50:26;;;;;;;4.20;3.60;;;2.10;91.10;;;;;;5442581;25;20290;-70
2024/04/23 01:52:56;;;;;;;3.70;3.40;;;2.10;88.40;;;;;;5447377;26;20986;-70
2024/04/23 01:55:24;;;;;;;3.77;3.57;;;2.10;82.20;;;;;;5449541;26;20233;-71
2024/04/23 01:57:54;;;;;;;3.90;3.50;;;2.00;73.60;;;;;;5453295;26;20303;-70
2024/04/23 02:00:25;;;;;;;5.10;3.97;;;2.00;81.60;;;;;;5455239;26;20580;-70
2024/04/23 02:02:56;;;;;;;4.27;3.93;;;2.00;92.10;;;;;;5453426;26;20312;-70
2024/04/23 02:05:25;;;;;;;4.10;3.90;;;1.90;95.60;;;;;;5445307;26;20261;-70
2024/04/23 02:07:56;;;;;;;4.30;3.90;;;1.90;98.90;;;;;;5448580;26;20295;-70
2024/04/23 02:10:25;;;;;;;4.30;3.90;;;1.90;99.90;;;;;;5447274;26;21202;-70
2024/04/23 02:12:55;;;;;;;4.73;3.60;;;1.80;99.90;;;;;;5445296;26;20330;-70
2024/04/23 02:15:26;;;;;;;4.67;4.27;;;1.80;99.90;;;;;;5453167;26;20249;-70
2024/04/23 02:17:56;;;;;;;4.23;3.90;;;1.70;99.90;;;;;;5448497;26;20297;-70
2024/04/23 02:20:23;;;;;;;5.00;3.90;;;1.70;99.90;;;;;;5447692;26;20257;-70
2024/04/23 02:22:54;;;;;;;4.70;4.13;;;1.70;99.90;;;;;;5445722;26;20292;-70
2024/04/23 02:25:23;;;;;;;4.40;3.70;;;1.70;99.90;;;;;;5454481;26;20248;-70
2024/04/23 02:27:53;;;;;;;4.57;4.17;;;1.60;99.90;;;;;;5456418;26;20303;-70
2024/04/23 02:30:20;;;;;;;5.60;4.03;;;1.60;99.90;;;;;;5447324;26;20240;-70
2024/04/23 02:32:53;;;;;;;4.33;3.93;;;1.60;99.90;;;;;;5448708;26;20257;-70
2024/04/23 02:35:21;;;;;;;3.93;3.63;;;1.60;99.90;;;;;;5445507;26;20255;-71
2024/04/23 02:37:51;;;;;;;6.27;3.83;;;1.60;99.90;;;;;;5452384;25;20661;-70
2024/04/23 02:40:18;;;;;;;5.37;4.60;;;1.60;99.90;;;;;;5456509;26;20329;-71
2024/04/23 02:42:49;;;;;;;5.20;4.70;;;1.60;99.90;;;;;;5460739;26;20317;-71
2024/04/23 02:45:16;;;;;;;6.33;3.93;;;1.60;99.90;;;;;;5465855;25;20291;-71
2024/04/23 02:47:46;;;;;;;4.40;4.00;;;1.50;99.90;;;;;;5470427;26;20651;-71
2024/04/23 02:50:16;;;;;;;4.40;4.00;;;1.50;99.90;;;;;;5459524;26;20730;-71
2024/04/23 02:52:46;;;;;;;4.30;4.00;;;1.50;99.90;;;;;;5466960;25;21221;-70
2024/04/23 02:55:14;;;;;;;3.53;3.37;;;1.50;99.90;;;;;;5466420;26;20228;-71
2024/04/23 02:57:44;;;;;;;8.77;3.90;;;1.40;99.90;;;;;;5452710;26;20716;-71
2024/04/23 03:00:13;;;;;;;4.63;4.27;;;1.30;99.90;;;;;;5463479;26;20826;-71
2024/04/23 03:02:43;;;;;;;4.90;4.20;;;1.30;99.90;;;;;;5460027;25;20612;-71
2024/04/23 03:05:10;;;;;;;3.90;3.60;;;1.20;99.90;;;;;;5459911;25;20264;-71
2024/04/23 03:07:43;;;;;;;3.93;3.63;;;1.20;99.90;;;;;;5458050;26;20233;-71
2024/04/23 03:10:11;;;;;;;4.03;3.77;;;1.10;99.90;;;;;;5467710;26;20284;-71
2024/04/23 03:12:41;;;;;;;4.33;4.00;;;1.10;99.90;;;;;;5460236;25;20253;-71
2024/04/23 03:15:09;;;;;;;4.00;3.70;;;1.10;99.90;;;;;;5462700;25;20291;-71
2024/04/23 03:17:39;;;;;;;4.47;4.13;;;1.10;99.90;;;;;;5457735;26;20274;-71
2024/04/23 03:20:07;;;;;;;5.10;4.50;;;1.10;99.90;;;;;;5458084;26;20581;-71
2024/04/23 03:22:38;;;;;;;4.27;3.90;;;1.10;99.90;;;;;;5458717;26;20241;-71
2024/04/23 03:25:08;;;;;;;4.70;3.90;;;1.10;99.90;;;;;;5456378;26;20293;-71
2024/04/23 03:27:38;;;;;;;4.47;4.17;;;1.10;99.90;;;;;;5462519;25;20249;-71
2024/04/23 03:30:07;;;;;;;5.17;4.27;;;1.10;99.90;;;;;;5457337;26;20253;-71
2024/04/23 03:32:39;;;;;;;4.00;3.80;;;1.00;99.90;;;;;;5457881;26;20271;-71
2024/04/23 03:35:07;;;;;;;5.07;4.10;;;1.00;99.90;;;;;;5457982;26;20345;-71
2024/04/23 03:37:37;;;;;;;4.37;3.97;;;1.00;99.90;;;;;;5462126;26;20245;-71
2024/04/23 03:40:11;;;;;;;3.93;3.53;;;0.90;99.90;;;;;;5448254;26;20260;-71
2024/04/23 03:42:44;;;;;;;4.73;3.90;;;0.90;99.90;;;;;;5453204;26;20264;-71
2024/04/23 03:45:14;;;;;;;5.43;4.50;;;0.90;99.90;;;;;;5464698;25;20257;-71
2024/04/23 03:47:45;;;;;;;4.37;3.80;;;0.90;99.90;;;;;;5450926;26;20315;-72
2024/04/23 03:50:12;;;;;;;5.13;4.50;;;0.80;99.90;;;;;;5451834;25;20637;-71
2024/04/23 03:52:42;;;;;;;4.93;4.47;;;0.80;99.90;;;;;;5459694;26;20330;-71
2024/04/23 03:55:13;;;;;;;4.57;4.17;;;0.80;99.90;;;;;;5450544;26;20249;-71
2024/04/23 03:57:43;;;;;;;4.57;4.20;;;0.80;99.90;;;;;;5450404;26;20289;-71
2024/04/23 04:00:11;;;;;;;5.10;4.60;;;0.80;99.90;;;;;;5451664;26;20288;-71
2024/04/23 04:08:13;;;;;;;4.63;4.23;;;0.70;99.90;;;;;;5452141;25;20257;-71
2024/04/23 04:10:43;;;;;;;4.50;4.10;;;0.70;99.90;;;;;;5452474;26;20244;-71
2024/04/23 04:13:14;;;;;;;4.70;4.30;;;0.70;99.90;;;;;;5459068;26;20306;-71
2024/04/23 04:15:52;;;;;;;5.57;4.37;;;0.70;99.90;;;;;;5456834;26;20252;-71
2024/04/23 04:18:20;;;;;;;4.87;4.47;;;0.70;99.90;;;;;;5449002;26;20299;-71
2024/04/23 04:20:50;;;;;;;5.67;4.20;;;0.60;99.90;;;;;;5453451;26;20257;-71
2024/04/23 04:23:18;;;;;;;4.87;4.37;;;0.60;99.90;;;;;;5455195;25;20253;-71
2024/04/23 04:25:52;;;;;;;5.33;4.60;;;0.60;99.90;;;;;;5457834;26;20282;-71
2024/04/23 04:28:19;;;;;;;5.63;4.33;;;0.60;99.90;;;;;;5455739;26;20233;-71
2024/04/23 04:30:49;;;;;;;5.23;4.47;;;0.50;99.90;;;;;;5457543;26;20295;-71
2024/04/23 04:33:17;;;;;;;9.67;4.67;;;0.50;99.90;;;;;;5461715;26;20328;-71
2024/04/23 04:35:47;;;;;;;6.53;4.77;;;0.50;99.90;;;;;;5454407;26;20267;-71
2024/04/23 04:38:15;;;;;;;5.47;4.80;;;0.50;99.90;;;;;;5458650;26;20265;-71
2024/04/23 04:40:45;;;;;;;5.53;4.70;;;0.60;99.90;;;;;;5450280;26;20308;-71
2024/04/23 04:43:15;;;;;;;7.70;5.30;;;0.50;99.90;;;;;;5444396;26;20242;-71
2024/04/23 04:45:45;;;;;;;9.97;5.73;;;0.50;99.90;;;;;;5457014;25;20304;-71
2024/04/23 04:48:12;;;;;;;10.80;5.10;;;0.50;99.90;;;;;;5447371;26;20295;-71
2024/04/23 04:50:43;;;;;;;5.40;4.60;;;0.50;99.90;;;;;;5450525;26;20249;-71
2024/04/23 04:53:10;;;;;;;5.33;4.70;;;0.50;99.90;;;;;;5450423;26;20264;-70
2024/04/23 04:55:40;;;;;;;5.60;5.10;;;0.50;99.90;;;;;;5453457;26;20238;-71
2024/04/23 04:58:08;;;;;;;5.43;4.93;;;0.60;99.90;;;;;;5480322;26;20338;-71
2024/04/23 05:00:41;;;;;;;6.37;4.73;;;0.60;99.90;;;;;;5448314;26;20825;-70
2024/04/23 05:03:11;;;;;;;6.33;5.37;;;0.60;99.90;;;;;;5454373;26;20251;-71
2024/04/23 05:05:41;;;;;;;5.93;5.17;;;0.60;99.90;;;;;;5445128;26;20299;-71
2024/04/23 05:08:09;;;;;;;26.70;13.93;;;0.60;99.90;;;;;;5458950;26;23047;-70
2024/04/23 05:10:39;;;;;;;19.73;11.47;;;0.70;99.90;;;;;;5454283;26;20396;-71
2024/04/23 05:13:07;;;;;;;18.40;10.87;;;0.70;99.90;;;;;;5450105;26;20304;-71
2024/04/23 05:15:37;;;;;;;11.47;6.33;;;0.70;99.90;;;;;;5452900;26;20272;-70
2024/04/23 05:18:07;;;;;;;10.80;5.47;;;0.80;99.90;;;;;;5449504;26;20309;-71
2024/04/23 05:20:39;;;;;;;5.77;5.27;;;0.80;99.90;;;;;;5447962;25;20253;-71
2024/04/23 05:23:06;;;;;;;7.77;5.53;;;0.80;99.90;;;;;;5452002;26;20312;-70
2024/04/23 05:25:36;;;;;;;11.90;7.37;;;0.90;99.90;;;;;;5450180;26;20304;-71
2024/04/23 05:28:04;;;;;;;12.93;7.83;;;1.00;99.90;;;;;;5450351;26;20267;-71
2024/04/23 05:33:23;;;;;;;16.33;11.20;;;1.20;99.90;;;;;;5470668;26;20261;-71
2024/04/23 05:35:53;;;;;;;16.13;10.90;;;1.40;99.90;;;;;;5457992;26;20257;-70
2024/04/23 05:38:23;;;;;;;14.83;9.87;;;1.60;99.90;;;;;;5450648;25;20640;-70
2024/04/23 05:40:53;;;;;;;9.03;7.97;;;1.80;99.90;;;;;;5449897;26;20268;-70
2024/04/23 05:43:24;;;;;;;7.67;6.43;;;2.00;99.90;;;;;;5452697;26;20320;-71
2024/04/23 05:45:54;;;;;;;9.20;6.30;;;2.20;99.90;;;;;;5452269;26;20632;-71
2024/04/23 05:49:01;;;;;;;7.63;5.60;;;2.50;99.90;;;;;;5449706;26;20282;-71
2024/04/23 05:52:08;;;;;;;7.60;5.20;;;2.70;99.90;;;;;;5438716;26;20290;-70
2024/04/23 05:55:26;;;;;;;6.13;5.53;;;2.90;99.90;;;;;;5455437;26;20735;-70
2024/04/23 05:57:59;;;;;;;5.97;5.37;;;3.20;92.20;;;;;;5445881;26;20252;-70
2024/04/23 06:00:30;;;;;;;7.20;5.17;;;3.40;47.70;;;;;;5458512;25;20283;-70
2024/04/23 06:03:00;;;;;;;5.33;4.90;;;3.50;14.20;;;;;;5452972;26;20293;-70
2024/04/23 06:05:28;;;;;;;13.23;5.20;;;3.70;1.00;;;;;;5443624;26;20245;-70
2024/04/23 06:07:59;;;;;;;6.40;5.37;;;3.90;1.00;;;;;;5446053;26;20248;-69
2024/04/23 06:10:27;;;;;;;10.70;5.30;;;4.00;1.00;;;;;;5453522;26;20232;-70
2024/04/23 06:13:00;;;;;;;8.50;5.43;;;4.20;1.00;;;;;;5452205;26;20303;-70
2024/04/23 06:15:27;;;;;;;5.53;5.03;;;4.40;1.00;;;;;;5451481;26;21082;-70
2024/04/23 06:17:57;;;;;;;6.67;5.17;;;4.50;1.00;;;;;;5450648;26;20845;-70
2024/04/23 06:20:25;;;;;;;8.97;5.40;;;4.60;1.00;;;;;;5451699;26;20253;-70
2024/04/23 06:22:56;;;;;;;5.40;5.00;;;4.80;1.00;;;;;;5453922;25;20229;-69
2024/04/23 06:25:24;;;;;;;8.17;5.50;;;4.90;99.90;;;;;;5447700;26;20245;-71
2024/04/23 06:27:55;;;;;;;8.07;5.40;;;5.10;1.00;;;;;;5464652;25;20664;-70
2024/04/23 06:30:25;;;;;;;7.73;5.47;;;5.20;43.30;;;;;;5462661;26;20253;-70
2024/04/23 06:32:55;;;;;;;5.67;5.13;;;5.30;99.90;;;;;;5459867;26;20278;-71
2024/04/23 06:35:23;;;;;;;9.07;5.30;;;5.40;1.00;;;;;;5456318;26;20252;-70
2024/04/23 06:37:54;;;;;;;8.20;5.50;;;5.50;99.90;;;;;;5453048;26;20234;-70
2024/04/23 06:40:24;;;;;;;9.63;5.10;;;5.60;91.90;;;;;;5458797;26;20258;-70
2024/04/23 06:42:51;;;;;;;6.50;5.90;;;5.70;1.00;;;;;;5453801;26;20249;-70
2024/04/23 06:45:21;;;;;;;6.77;5.73;;;5.70;1.00;;;;;;5461264;25;20288;-70
2024/04/23 06:47:52;;;;;;;7.67;5.80;;;5.80;1.00;;;;;;5452601;25;20248;-70
2024/04/23 06:50:22;;;;;;;6.37;5.53;;;6.00;99.90;;;;;;5462179;25;20281;-70
2024/04/23 06:52:49;;;;;;;6.97;6.20;;;6.10;1.00;;;;;;5454837;26;20241;-70
2024/04/23 06:55:19;;;;;;;7.10;6.40;;;6.40;99.90;;;;;;5460400;26;20270;-70
2024/04/23 06:57:52;;;;;;;6.97;6.27;;;6.60;1.00;;;;;;5454701;26;20258;-70
2024/04/23 07:00:22;;;;;;;9.93;6.30;;;6.80;56.10;;;;;;5446442;26;20274;-70
2024/04/23 07:02:52;;;;;;;8.83;6.03;;;6.90;1.00;;;;;;5450522;25;20299;-70
2024/04/23 07:05:22;;;;;;;7.47;6.50;;;7.00;99.90;;;;;;5449331;26;20241;-70
2024/04/23 07:07:52;;;;;;;7.37;6.57;;;7.20;1.00;;;;;;5458123;25;20233;-69
2024/04/23 07:10:22;;;;;;;8.70;6.10;;;7.30;95.60;;;;;;5449417;26;20248;-70
2024/04/23 07:12:50;;;;;;;8.10;6.37;;;7.40;99.90;;;;;;5453510;26;20254;-70
2024/04/23 07:15:20;;;;;;;7.40;6.53;;;7.30;99.90;;;;;;5450329;26;20264;-69
2024/04/23 07:17:49;;;;;;;8.40;6.40;;;7.40;99.90;;;;;;5445602;25;20309;-70
2024/04/23 07:20:22;;;;;;;10.90;6.37;;;7.60;99.90;;;;;;5452612;26;20284;-70
2024/04/23 07:22:49;;;;;;;10.03;6.23;;;7.60;99.90;;;;;;5454217;26;20246;-69
2024/04/23 07:25:19;;;;;;;8.20;5.80;;;7.70;1.00;;;;;;5459715;26;20240;-70
2024/04/23 07:27:51;;;;;;;9.60;6.37;;;7.70;1.00;;;;;;5460123;26;20244;-68
2024/04/23 07:30:25;;;;;;;7.87;6.37;;;7.80;99.90;;;;;;5454944;26;20623;-67
2024/04/23 07:32:55;;;;;;;11.97;7.00;;;8.00;1.00;;;;;;5457978;25;20263;-67
2024/04/23 07:35:28;;;;;;;8.70;6.60;;;8.10;23.90;;;;;;5461163;26;20280;-67
2024/04/23 07:37:55;;;;;;;6.70;6.10;;;8.30;1.00;;;;;;5453014;26;20237;-68
2024/04/23 07:40:26;;;;;;;11.67;6.33;;;8.40;1.00;;;;;;5458933;26;20285;-69
2024/04/23 07:42:53;;;;;;;8.87;6.30;;;8.50;32.20;;;;;;5455796;26;20333;-69
2024/04/23 07:45:23;;;;;;;6.80;6.20;;;8.60;1.00;;;;;;5457327;26;20245;-68
2024/04/23 07:47:51;;;;;;;7.10;6.40;;;8.60;1.00;;;;;;5455669;25;20253;-68
2024/04/23 07:50:21;;;;;;;6.63;6.00;;;8.70;1.00;;;;;;5456741;26;21017;-68
2024/04/23 07:52:51;;;;;;;8.97;6.60;;;8.80;1.00;;;;;;5454482;26;21038;-67
2024/04/23 07:55:22;;;;;;;10.60;6.53;;;8.90;1.00;;;;;;5460082;26;20260;-68
2024/04/23 07:57:51;;;;;;;8.03;6.70;;;9.00;1.00;;;;;;5453670;26;20762;-68
2024/04/23 08:00:23;;;;;;;6.47;5.87;;;9.10;1.00;;;;;;5448214;26;20257;-68
2024/04/23 08:02:53;;;;;;;9.70;6.10;;;9.10;1.00;;;;;;5450976;26;20264;-68
2024/04/23 08:05:23;;;;;;;8.03;6.50;;;9.20;1.00;;;;;;5449282;26;20796;-68
2024/04/23 08:07:53;;;;;;;8.80;6.67;;;9.30;1.00;;;;;;5452210;26;20640;-68
2024/04/23 08:10:23;;;;;;;6.50;5.90;;;9.50;1.00;;;;;;5454205;26;20241;-68
2024/04/23 08:12:52;;;;;;;6.30;5.80;;;9.60;1.00;;;;;;5454100;26;20250;-68
2024/04/23 08:15:23;;;;;;;7.07;6.37;;;9.70;1.00;;;;;;5453430;25;20296;-68
2024/04/23 08:17:52;;;;;;;11.30;7.70;;;9.80;1.00;;;;;;5458602;25;20248;-68
2024/04/23 08:20:22;;;;;;;11.53;7.27;;;9.90;1.00;;;;;;5449764;26;20855;-68
2024/04/23 08:22:57;;;;;;;9.17;6.50;;;10.10;1.00;;;;;;5459787;25;20276;-67
2024/04/23 08:25:28;;;;;;;11.03;7.20;;;10.10;99.90;;;;;;5453013;26;20349;-68
2024/04/23 08:27:56;;;;;;;7.50;6.27;;;10.20;1.00;;;;;;5461940;26;20288;-68
2024/04/23 08:30:27;;;;;;;7.60;6.60;;;10.40;99.90;;;;;;5462291;26;20247;-68
2024/04/23 08:32:54;;;;;;;8.57;7.10;;;10.50;99.90;;;;;;5457831;25;20294;-68
2024/04/23 08:35:24;;;;;;;7.93;6.27;;;10.60;99.90;;;;;;5450692;25;20904;-68
2024/04/23 08:37:52;;;;;;;9.20;6.67;;;10.80;99.90;;;;;;5453738;26;20234;-68
2024/04/23 08:40:26;;;;;;;6.83;6.20;;;10.90;99.90;;;;;;5461912;26;20236;-69
2024/04/23 08:42:59;;;;;;;7.23;6.03;;;10.90;99.90;;;;;;5452688;26;20283;-68
2024/04/23 08:45:34;;;;;;;8.53;6.57;;;11.20;99.90;;;;;;5459350;26;20283;-68
2024/04/23 08:48:06;;;;;;;7.47;6.07;;;11.30;99.90;;;;;;5454724;26;20624;-68
2024/04/23 08:50:35;;;;;;;6.50;5.87;;;11.40;99.90;;;;;;5450318;26;20305;-69
2024/04/23 08:53:06;;;;;;;10.70;5.93;;;11.50;99.90;;;;;;5457387;25;20302;-68
2024/04/23 08:55:42;;;;;;;7.80;5.80;;;11.60;99.90;;;;;;5462234;26;20583;-69
2024/04/23 08:58:13;;;;;;;9.00;6.30;;;12.00;99.90;;;;;;5459942;26;20776;-69
2024/04/23 09:00:42;;;;;;;6.17;5.33;;;12.20;99.90;;;;;;5458023;26;20253;-68
2024/04/23 09:03:26;;;;;;;6.97;5.73;;;12.40;99.90;;;;;;5452591;26;20262;-69
2024/04/23 09:05:54;;;;;;;6.00;5.50;;;12.80;99.90;;;;;;5448605;26;20743;-69
2024/04/23 09:08:24;;;;;;;6.80;5.67;;;12.80;99.90;;;;;;5444967;26;20589;-68
2024/04/23 09:10:57;;;;;;;5.60;5.20;;;12.80;99.90;;;;;;5439173;26;22490;-68
2024/04/23 09:13:28;;;;;;;6.80;5.90;;;12.90;99.90;;;;;;5458432;26;20270;-69
2024/04/23 09:15:57;;;;;;;7.23;5.80;;;12.80;99.90;;;;;;5461299;26;20355;-69
2024/04/23 09:18:28;;;;;;;5.97;5.37;;;12.90;99.90;;;;;;5453622;26;20890;-68
2024/04/23 09:20:56;;;;;;;5.90;5.40;;;13.20;99.90;;;;;;5454894;26;20253;-69
2024/04/23 09:23:31;;;;;;;5.43;4.93;;;13.60;99.90;;;;;;5452004;26;20265;-69
2024/04/23 09:26:03;;;;;;;5.13;4.73;;;13.80;99.90;;;;;;5454777;26;20233;-68
2024/04/23 09:28:35;;;;;;;7.23;5.03;;;13.90;99.90;;;;;;5446270;26;20294;-69
2024/04/23 09:31:03;;;;;;;5.30;4.87;;;14.30;95.10;;;;;;5482776;26;20356;-69
2024/04/23 09:33:33;;;;;;;5.50;5.00;;;14.50;92.80;;;;;;5452143;25;20245;-68
2024/04/23 09:36:02;;;;;;;5.67;5.03;;;14.60;84.20;;;;;;5460124;26;20614;-69
2024/04/23 09:38:37;;;;;;;6.03;4.20;;;14.90;90.90;;;;;;5458505;26;20248;-69
2024/04/23 09:41:08;;;;;;;4.23;3.93;;;15.20;73.80;;;;;;5450210;26;20301;-68
2024/04/23 09:43:40;;;;;;;4.20;3.80;;;15.50;54.30;;;;;;5463299;26;20226;-69
2024/04/23 09:46:08;;;;;;;3.93;3.63;;;15.90;42.20;;;;;;5451180;26;20309;-69
2024/04/23 09:48:45;;;;;;;3.43;3.23;;;16.00;30.80;;;;;;5459463;26;20617;-69
2024/04/23 09:51:13;;;;;;;5.77;4.27;;;16.20;32.70;;;;;;5455060;26;20307;-68
2024/04/23 09:53:43;;;;;;;3.60;3.30;;;16.80;29.70;;;;;;5446777;26;20249;-69
2024/04/23 09:56:17;;;;;;;3.47;3.17;;;17.10;22.30;;;;;;5440085;25;20806;-68
2024/04/23 09:58:52;;;;;;;3.70;3.50;;;17.20;22.60;;;;;;5449785;26;20273;-68
2024/04/23 10:01:21;;;;;;;3.43;3.27;;;17.40;16.30;;;;;;5450095;26;20332;-68
2024/04/23 10:03:55;;;;;;;6.43;3.57;;;17.40;18.40;;;;;;5451070;26;20245;-68
2024/04/23 10:06:26;;;;;;;4.17;3.87;;;17.40;16.30;;;;;;5455683;26;20249;-68
2024/04/23 10:09:04;;;;;;;3.60;3.50;;;17.60;12.60;;;;;;5436542;26;20365;-68
2024/04/23 10:11:41;;;;;;;3.50;3.30;;;17.80;13.10;;;;;;5435928;26;20777;-68
2024/04/23 10:14:22;;;;;;;3.67;3.47;;;18.30;13.40;;;;;;5440253;26;20260;-68
2024/04/23 10:16:57;;;;;;;3.55;3.35;;;18.90;10.80;;;;;;5445034;26;20239;-67
2024/04/23 10:19:31;;;;;;;5.33;3.27;;;18.80;3.60;;;;;;5451192;26;20582;-68
2024/04/23 10:22:04;;;;;;;3.30;3.13;;;18.10;1.00;;;;;;5448868;26;20260;-68
2024/04/23 10:24:34;;;;;;;3.97;3.67;;;16.80;1.00;;;;;;5448244;26;20298;-68
2024/04/23 10:27:07;;;;;;;4.00;3.70;;;16.00;1.00;;;;;;5453134;26;20283;-68
2024/04/23 10:29:39;;;;;;;4.17;3.70;;;15.60;1.00;;;;;;5451816;26;20298;-68
2024/04/23 10:32:09;;;;;;;4.33;3.83;;;15.10;2.40;;;;;;5460907;26;20307;-68
2024/04/23 10:34:41;;;;;;;4.00;3.73;;;15.00;3.70;;;;;;5457062;26;20277;-68
2024/04/23 10:37:10;;;;;;;4.20;3.87;;;15.20;5.80;;;;;;5449312;26;20249;-68
2024/04/23 10:39:42;;;;;;;4.27;3.83;;;15.80;14.50;;;;;;5455968;25;20252;-68
2024/04/23 10:42:14;;;;;;;4.10;3.80;;;16.90;6.50;;;;;;5453135;26;20253;-68
2024/04/23 10:44:46;;;;;;;4.20;3.90;;;18.20;7.20;;;;;;5444820;26;20263;-68
2024/04/23 10:47:13;;;;;;;3.93;3.63;;;19.00;6.30;;;;;;5449601;26;20277;-68
2024/04/23 10:49:43;;;;;;;3.73;3.53;;;19.80;3.90;;;;;;5452731;26;20240;-68
2024/04/23 10:52:11;;;;;;;3.40;3.30;;;20.10;1.00;;;;;;5451203;26;20237;-68
2024/04/23 10:54:41;;;;;;;4.10;3.80;;;20.20;1.00;;;;;;5447332;25;20304;-68
2024/04/23 10:57:13;;;;;;;4.10;3.80;;;19.50;1.00;;;;;;5449924;25;20325;-68
2024/04/23 10:59:44;;;;;;;4.20;4.00;;;18.00;1.00;;;;;;5454399;26;20283;-68
2024/04/23 11:02:12;;;;;;;4.27;4.07;;;17.10;1.00;;;;;;5458764;26;20273;-68
2024/04/23 11:04:45;;;;;;;4.73;4.33;;;16.50;1.00;;;;;;5457896;26;20357;-68
2024/04/23 11:07:24;;;;;;;4.00;3.70;;;17.30;3.10;;;;;;5458400;26;20248;-68
2024/04/23 11:10:00;;;;;;;3.90;3.60;;;17.50;1.00;;;;;;5443838;26;20264;-68
2024/04/23 11:12:36;;;;;;;3.87;3.57;;;17.10;1.00;;;;;;5452809;26;20639;-68
2024/04/23 11:15:16;;;;;;;3.53;3.30;;;16.30;1.00;;;;;;5449872;26;20268;-68
2024/04/23 11:17:43;;;;;;;3.63;3.33;;;15.60;1.00;;;;;;5443497;26;20908;-68
2024/04/23 11:20:14;;;;;;;3.50;3.30;;;15.40;1.00;;;;;;5450682;26;20283;-68
2024/04/23 11:22:48;;;;;;;4.20;3.67;;;15.50;1.00;;;;;;5457467;26;20233;-68
2024/04/23 11:25:26;;;;;;;4.10;3.70;;;15.70;1.00;;;;;;5450893;26;20643;-68
2024/04/23 11:27:56;;;;;;;4.27;4.00;;;15.80;1.00;;;;;;5457560;26;20718;-68
2024/04/23 11:30:27;;;;;;;4.37;3.63;;;15.80;1.00;;;;;;5461027;25;20306;-68
2024/04/23 11:32:56;;;;;;;4.67;3.60;;;16.30;1.00;;;;;;5463833;26;20786;-68
2024/04/23 11:35:27;;;;;;;3.93;3.60;;;16.50;1.00;;;;;;5462389;26;20249;-68
2024/04/23 11:37:58;;;;;;;4.00;3.57;;;16.60;1.00;;;;;;5455081;26;20321;-67
2024/04/23 11:40:26;;;;;;;4.10;3.70;;;17.80;1.00;;;;;;5465273;26;20294;-68
2024/04/23 11:42:59;;;;;;;3.53;3.10;;;19.00;1.00;;;;;;5458857;26;20253;-68
2024/04/23 11:45:27;;;;;;;3.80;3.50;;;19.70;1.00;;;;;;5468300;26;20780;-68
2024/04/23 11:47:58;;;;;;;3.53;3.30;;;20.40;1.00;;;;;;5453365;26;20269;-68
2024/04/23 11:50:26;;;;;;;3.67;3.03;;;20.70;1.00;;;;;;5456534;26;21085;-68
2024/04/23 11:52:56;;;;;;;3.67;3.47;;;20.70;1.00;;;;;;5461135;25;20237;-67
2024/04/23 11:55:24;;;;;;;3.30;3.20;;;20.20;1.00;;;;;;5454314;26;20241;-68
2024/04/23 11:57:55;;;;;;;3.77;3.30;;;20.00;1.00;;;;;;5460566;26;20317;-68
2024/04/23 12:00:26;;;;;;;3.10;2.90;;;20.30;1.00;;;;;;5458548;26;20261;-67
2024/04/23 12:02:57;;;;;;;2.90;2.80;;;19.80;1.00;;;;;;5467769;26;20269;-68
2024/04/23 12:05:26;;;;;;;3.60;3.40;;;18.50;1.00;;;;;;5450467;26;20291;-68
2024/04/23 12:07:58;;;;;;;4.03;3.30;;;18.00;1.00;;;;;;5449771;26;20233;-67
2024/04/23 12:10:30;;;;;;;4.10;3.80;;;18.10;1.00;;;;;;5455378;26;20248;-67
2024/04/23 12:13:00;;;;;;;4.20;3.80;;;18.10;1.00;;;;;;5456933;26;20781;-68
2024/04/23 12:15:31;;;;;;;4.20;3.80;;;18.30;1.00;;;;;;5460812;26;20257;-67
2024/04/23 12:18:01;;;;;;;4.30;3.90;;;18.80;1.00;;;;;;5457597;26;20369;-68
2024/04/23 12:20:29;;;;;;;3.60;3.40;;;19.10;1.00;;;;;;5454657;26;20403;-68
2024/04/23 12:23:11;;;;;;;3.63;3.33;;;19.10;1.00;;;;;;5454236;26;20233;-67
2024/04/23 12:25:41;;;;;;;4.37;3.37;;;19.30;1.00;;;;;;5458444;26;20248;-67
2024/04/23 12:28:12;;;;;;;3.43;3.13;;;19.20;1.00;;;;;;5453402;26;20241;-67
2024/04/23 12:30:43;;;;;;;3.20;3.00;;;18.90;1.00;;;;;;5459830;26;20253;-67
2024/04/23 12:33:14;;;;;;;3.20;3.00;;;18.80;1.00;;;;;;5450422;26;20248;-67
2024/04/23 12:35:43;;;;;;;3.17;2.70;;;18.50;1.00;;;;;;5458073;26;21070;-67
2024/04/23 12:38:14;;;;;;;4.03;2.57;;;17.60;1.00;;;;;;5452678;26;20895;-67
2024/04/23 12:40:42;;;;;;;2.73;2.53;;;17.20;1.00;;;;;;5458429;26;20228;-67
2024/04/23 12:43:13;;;;;;;2.60;2.40;;;17.10;1.00;;;;;;5455868;26;20286;-67
2024/04/23 12:45:44;;;;;;;2.87;2.50;;;16.90;1.00;;;;;;5452519;26;20706;-67
2024/04/23 12:48:14;;;;;;;2.63;2.33;;;16.80;1.00;;;;;;5459992;25;20261;-67
2024/04/23 12:50:42;;;;;;;2.10;2.00;;;16.80;1.00;;;;;;5455519;26;20400;-66
2024/04/23 12:53:14;;;;;;;2.70;2.50;;;16.90;1.00;;;;;;5452672;26;20258;-67
2024/04/23 12:55:43;;;;;;;2.87;2.60;;;16.80;1.00;;;;;;5455925;26;20238;-67
2024/04/23 12:58:13;;;;;;;2.40;2.30;;;16.70;1.00;;;;;;5453351;26;20240;-67
2024/04/23 13:00:43;;;;;;;2.50;2.30;;;16.80;1.00;;;;;;5460579;25;20287;-67
2024/04/23 13:03:13;;;;;;;2.20;2.20;;;16.90;1.00;;;;;;5457790;26;20248;-67
2024/04/23 13:05:45;;;;;;;2.63;2.53;;;17.10;1.00;;;;;;5450241;26;20263;-67
2024/04/23 13:08:16;;;;;;;2.67;2.40;;;16.60;1.00;;;;;;5454130;26;20356;-67
2024/04/23 13:10:44;;;;;;;2.50;2.40;;;16.50;1.00;;;;;;5449018;26;20297;-65
2024/04/23 13:13:14;;;;;;;2.87;2.67;;;16.60;1.00;;;;;;5451052;26;20233;-67
2024/04/23 13:15:45;;;;;;;2.67;2.57;;;16.80;1.00;;;;;;5475449;26;20955;-67
2024/04/23 13:18:15;;;;;;;2.50;2.30;;;17.10;1.00;;;;;;5459754;26;20300;-67
2024/04/23 13:20:43;;;;;;;2.77;2.57;;;17.00;1.00;;;;;;5448014;26;20255;-67
2024/04/23 13:23:13;;;;;;;3.97;2.50;;;16.90;1.00;;;;;;5454652;26;20295;-67